sensor_id;sensor_type;location;lat;lon;timestamp;P1;durP1;ratioP1;P2;durP2;ratioP2
52188;SDS011;38162;45.926;13.608;2023-03-23T00:01:14;26.80;;;15.90;;
52188;SDS011;38162;45.926;13.608;2023-03-23T00:03:48;20.85;;;16.55;;
52188;SDS011;38162;45.926;13.608;2023-03-23T00:06:15;21.02;;;16.30;;
52188;SDS011;38162;45.926;13.608;2023-03-23T00:08:47;22.20;;;15.32;;
52188;SDS011;38162;45.926;13.608;2023-03-23T00:11:19;21.27;;;15.95;;
52188;SDS011;38162;45.926;13.608;2023-03-23T00:13:47;19.58;;;15.27;;
52188;SDS011;38162;45.926;13.608;2023-03-23T00:16:21;24.77;;;16.77;;
52188;SDS011;38162;45.926;13.608;2023-03-23T00:18:54;19.27;;;15.45;;
52188;SDS011;38162;45.926;13.608;2023-03-23T00:21:25;22.63;;;15.30;;
52188;SDS011;38162;45.926;13.608;2023-03-23T00:26:32;21.08;;;16.23;;
52188;SDS011;38162;45.926;13.608;2023-03-23T00:29:03;22.23;;;17.35;;
52188;SDS011;38162;45.926;13.608;2023-03-23T00:31:29;21.50;;;15.88;;
52188;SDS011;38162;45.926;13.608;2023-03-23T00:34:01;22.17;;;15.88;;
52188;SDS011;38162;45.926;13.608;2023-03-23T00:36:29;22.23;;;16.08;;
52188;SDS011;38162;45.926;13.608;2023-03-23T00:38:56;20.80;;;15.93;;
52188;SDS011;38162;45.926;13.608;2023-03-23T00:41:26;19.58;;;16.20;;
52188;SDS011;38162;45.926;13.608;2023-03-23T00:43:54;24.23;;;15.85;;
52188;SDS011;38162;45.926;13.608;2023-03-23T00:46:21;21.73;;;16.45;;
52188;SDS011;38162;45.926;13.608;2023-03-23T00:48:47;22.08;;;16.23;;
52188;SDS011;38162;45.926;13.608;2023-03-23T00:51:15;20.58;;;17.05;;
52188;SDS011;38162;45.926;13.608;2023-03-23T00:53:42;26.25;;;15.95;;
52188;SDS011;38162;45.926;13.608;2023-03-23T00:56:09;21.38;;;15.80;;
52188;SDS011;38162;45.926;13.608;2023-03-23T00:58:34;20.20;;;16.13;;
52188;SDS011;38162;45.926;13.608;2023-03-23T01:01:01;19.23;;;15.63;;
52188;SDS011;38162;45.926;13.608;2023-03-23T01:03:26;23.15;;;16.48;;
52188;SDS011;38162;45.926;13.608;2023-03-23T01:05:53;22.40;;;16.55;;
52188;SDS011;38162;45.926;13.608;2023-03-23T01:08:19;26.88;;;17.20;;
52188;SDS011;38162;45.926;13.608;2023-03-23T01:10:47;20.67;;;16.23;;
52188;SDS011;38162;45.926;13.608;2023-03-23T01:13:13;21.27;;;15.95;;
52188;SDS011;38162;45.926;13.608;2023-03-23T01:15:39;22.77;;;15.80;;
52188;SDS011;38162;45.926;13.608;2023-03-23T01:18:06;24.27;;;15.68;;
52188;SDS011;38162;45.926;13.608;2023-03-23T01:20:33;23.58;;;16.55;;
52188;SDS011;38162;45.926;13.608;2023-03-23T01:23:00;22.90;;;16.33;;
52188;SDS011;38162;45.926;13.608;2023-03-23T01:25:31;26.92;;;18.38;;
52188;SDS011;38162;45.926;13.608;2023-03-23T01:28:00;22.92;;;18.35;;
52188;SDS011;38162;45.926;13.608;2023-03-23T01:30:26;23.40;;;18.30;;
52188;SDS011;38162;45.926;13.608;2023-03-23T01:32:52;28.45;;;19.50;;
52188;SDS011;38162;45.926;13.608;2023-03-23T01:35:20;25.02;;;18.50;;
52188;SDS011;38162;45.926;13.608;2023-03-23T01:37:46;23.35;;;17.35;;
52188;SDS011;38162;45.926;13.608;2023-03-23T01:40:12;26.15;;;17.20;;
52188;SDS011;38162;45.926;13.608;2023-03-23T01:42:39;23.58;;;16.30;;
52188;SDS011;38162;45.926;13.608;2023-03-23T01:48:07;19.92;;;15.45;;
52188;SDS011;38162;45.926;13.608;2023-03-23T01:50:43;19.13;;;13.90;;
52188;SDS011;38162;45.926;13.608;2023-03-23T01:53:17;17.55;;;14.15;;
52188;SDS011;38162;45.926;13.608;2023-03-23T01:55:45;20.60;;;13.65;;
52188;SDS011;38162;45.926;13.608;2023-03-23T01:58:16;20.75;;;13.93;;
52188;SDS011;38162;45.926;13.608;2023-03-23T02:00:44;20.98;;;14.23;;
52188;SDS011;38162;45.926;13.608;2023-03-23T02:03:11;20.23;;;13.32;;
52188;SDS011;38162;45.926;13.608;2023-03-23T02:05:42;21.65;;;15.50;;
52188;SDS011;38162;45.926;13.608;2023-03-23T02:08:08;21.33;;;14.07;;
52188;SDS011;38162;45.926;13.608;2023-03-23T02:10:36;19.50;;;14.90;;
52188;SDS011;38162;45.926;13.608;2023-03-23T02:13:03;20.10;;;16.33;;
52188;SDS011;38162;45.926;13.608;2023-03-23T02:15:45;33.72;;;18.48;;
52188;SDS011;38162;45.926;13.608;2023-03-23T02:18:25;23.98;;;17.08;;
52188;SDS011;38162;45.926;13.608;2023-03-23T02:21:20;21.50;;;16.30;;
52188;SDS011;38162;45.926;13.608;2023-03-23T02:27:16;22.67;;;16.00;;
52188;SDS011;38162;45.926;13.608;2023-03-23T02:32:52;19.98;;;14.90;;
52188;SDS011;38162;45.926;13.608;2023-03-23T02:35:36;20.08;;;15.00;;
52188;SDS011;38162;45.926;13.608;2023-03-23T02:38:13;21.67;;;15.87;;
52188;SDS011;38162;45.926;13.608;2023-03-23T02:40:48;24.50;;;16.42;;
52188;SDS011;38162;45.926;13.608;2023-03-23T02:43:20;20.05;;;15.93;;
52188;SDS011;38162;45.926;13.608;2023-03-23T02:45:47;20.55;;;15.98;;
52188;SDS011;38162;45.926;13.608;2023-03-23T02:48:15;20.73;;;15.32;;
52188;SDS011;38162;45.926;13.608;2023-03-23T02:50:46;25.35;;;16.48;;
52188;SDS011;38162;45.926;13.608;2023-03-23T02:53:17;20.15;;;15.95;;
52188;SDS011;38162;45.926;13.608;2023-03-23T02:55:46;18.58;;;14.75;;
52188;SDS011;38162;45.926;13.608;2023-03-23T02:58:13;20.25;;;15.05;;
52188;SDS011;38162;45.926;13.608;2023-03-23T03:00:39;20.13;;;15.35;;
52188;SDS011;38162;45.926;13.608;2023-03-23T03:03:07;24.90;;;16.25;;
52188;SDS011;38162;45.926;13.608;2023-03-23T03:05:43;21.27;;;14.68;;
52188;SDS011;38162;45.926;13.608;2023-03-23T03:11:03;20.13;;;14.90;;
52188;SDS011;38162;45.926;13.608;2023-03-23T03:13:35;20.35;;;15.35;;
52188;SDS011;38162;45.926;13.608;2023-03-23T03:16:07;21.42;;;15.45;;
52188;SDS011;38162;45.926;13.608;2023-03-23T03:18:57;20.13;;;15.55;;
52188;SDS011;38162;45.926;13.608;2023-03-23T03:21:31;20.65;;;15.60;;
52188;SDS011;38162;45.926;13.608;2023-03-23T03:24:01;17.77;;;14.27;;
52188;SDS011;38162;45.926;13.608;2023-03-23T03:26:30;18.95;;;14.80;;
52188;SDS011;38162;45.926;13.608;2023-03-23T03:28:59;19.15;;;14.45;;
52188;SDS011;38162;45.926;13.608;2023-03-23T03:31:32;19.63;;;14.00;;
52188;SDS011;38162;45.926;13.608;2023-03-23T03:34:04;21.20;;;13.90;;
52188;SDS011;38162;45.926;13.608;2023-03-23T03:36:31;17.33;;;13.15;;
52188;SDS011;38162;45.926;13.608;2023-03-23T03:39:03;18.35;;;13.70;;
52188;SDS011;38162;45.926;13.608;2023-03-23T03:41:32;20.23;;;14.05;;
52188;SDS011;38162;45.926;13.608;2023-03-23T03:44:00;15.80;;;13.30;;
52188;SDS011;38162;45.926;13.608;2023-03-23T03:46:26;17.75;;;12.90;;
52188;SDS011;38162;45.926;13.608;2023-03-23T03:49:00;20.08;;;13.35;;
52188;SDS011;38162;45.926;13.608;2023-03-23T03:51:28;21.33;;;13.25;;
52188;SDS011;38162;45.926;13.608;2023-03-23T03:53:56;22.85;;;14.95;;
52188;SDS011;38162;45.926;13.608;2023-03-23T03:56:22;21.48;;;14.75;;
52188;SDS011;38162;45.926;13.608;2023-03-23T03:58:48;21.50;;;13.98;;
52188;SDS011;38162;45.926;13.608;2023-03-23T04:01:15;22.40;;;14.48;;
52188;SDS011;38162;45.926;13.608;2023-03-23T04:03:42;19.15;;;14.35;;
52188;SDS011;38162;45.926;13.608;2023-03-23T04:06:09;18.70;;;13.57;;
52188;SDS011;38162;45.926;13.608;2023-03-23T04:08:35;21.65;;;14.23;;
52188;SDS011;38162;45.926;13.608;2023-03-23T04:11:09;22.25;;;14.10;;
52188;SDS011;38162;45.926;13.608;2023-03-23T04:13:37;19.02;;;12.95;;
52188;SDS011;38162;45.926;13.608;2023-03-23T04:16:03;19.55;;;13.13;;
52188;SDS011;38162;45.926;13.608;2023-03-23T04:18:30;18.83;;;12.88;;
52188;SDS011;38162;45.926;13.608;2023-03-23T04:20:58;18.80;;;13.68;;
52188;SDS011;38162;45.926;13.608;2023-03-23T04:23:24;20.13;;;13.77;;
52188;SDS011;38162;45.926;13.608;2023-03-23T04:25:51;21.95;;;13.38;;
52188;SDS011;38162;45.926;13.608;2023-03-23T04:28:22;22.23;;;13.52;;
52188;SDS011;38162;45.926;13.608;2023-03-23T04:30:49;19.58;;;13.85;;
52188;SDS011;38162;45.926;13.608;2023-03-23T04:33:19;20.77;;;14.57;;
52188;SDS011;38162;45.926;13.608;2023-03-23T04:35:50;20.08;;;13.82;;
52188;SDS011;38162;45.926;13.608;2023-03-23T04:38:18;25.48;;;14.48;;
52188;SDS011;38162;45.926;13.608;2023-03-23T04:40:45;23.63;;;14.90;;
52188;SDS011;38162;45.926;13.608;2023-03-23T04:43:12;19.25;;;14.70;;
52188;SDS011;38162;45.926;13.608;2023-03-23T04:45:39;20.23;;;14.63;;
52188;SDS011;38162;45.926;13.608;2023-03-23T04:48:10;22.20;;;15.32;;
52188;SDS011;38162;45.926;13.608;2023-03-23T04:50:36;23.02;;;14.85;;
52188;SDS011;38162;45.926;13.608;2023-03-23T04:53:02;21.70;;;15.20;;
52188;SDS011;38162;45.926;13.608;2023-03-23T04:55:30;21.67;;;15.20;;
52188;SDS011;38162;45.926;13.608;2023-03-23T04:57:57;25.65;;;16.05;;
52188;SDS011;38162;45.926;13.608;2023-03-23T05:00:26;24.42;;;14.95;;
52188;SDS011;38162;45.926;13.608;2023-03-23T05:02:52;21.45;;;15.10;;
52188;SDS011;38162;45.926;13.608;2023-03-23T05:05:20;23.05;;;15.45;;
52188;SDS011;38162;45.926;13.608;2023-03-23T05:07:47;28.23;;;14.55;;
52188;SDS011;38162;45.926;13.608;2023-03-23T05:10:14;25.85;;;15.70;;
52188;SDS011;38162;45.926;13.608;2023-03-23T05:12:40;31.38;;;15.25;;
52188;SDS011;38162;45.926;13.608;2023-03-23T05:15:07;24.33;;;14.98;;
52188;SDS011;38162;45.926;13.608;2023-03-23T05:17:33;34.10;;;15.80;;
52188;SDS011;38162;45.926;13.608;2023-03-23T05:20:00;28.17;;;16.10;;
52188;SDS011;38162;45.926;13.608;2023-03-23T05:22:29;27.10;;;16.17;;
52188;SDS011;38162;45.926;13.608;2023-03-23T05:24:57;23.05;;;14.90;;
52188;SDS011;38162;45.926;13.608;2023-03-23T05:29:56;23.17;;;14.75;;
52188;SDS011;38162;45.926;13.608;2023-03-23T05:32:23;24.70;;;15.18;;
52188;SDS011;38162;45.926;13.608;2023-03-23T05:34:57;18.90;;;13.43;;
52188;SDS011;38162;45.926;13.608;2023-03-23T05:37:24;20.08;;;13.73;;
52188;SDS011;38162;45.926;13.608;2023-03-23T05:39:51;25.33;;;13.88;;
52188;SDS011;38162;45.926;13.608;2023-03-23T05:42:22;24.45;;;14.95;;
52188;SDS011;38162;45.926;13.608;2023-03-23T05:44:48;21.55;;;14.60;;
52188;SDS011;38162;45.926;13.608;2023-03-23T05:47:14;25.95;;;15.40;;
52188;SDS011;38162;45.926;13.608;2023-03-23T05:49:40;26.88;;;16.33;;
52188;SDS011;38162;45.926;13.608;2023-03-23T05:52:06;25.80;;;15.65;;
52188;SDS011;38162;45.926;13.608;2023-03-23T05:54:32;30.48;;;16.20;;
52188;SDS011;38162;45.926;13.608;2023-03-23T05:56:59;27.08;;;15.80;;
52188;SDS011;38162;45.926;13.608;2023-03-23T05:59:25;53.38;;;16.63;;
52188;SDS011;38162;45.926;13.608;2023-03-23T06:01:51;27.60;;;15.57;;
52188;SDS011;38162;45.926;13.608;2023-03-23T06:04:18;28.00;;;16.65;;
52188;SDS011;38162;45.926;13.608;2023-03-23T06:06:44;37.17;;;15.95;;
52188;SDS011;38162;45.926;13.608;2023-03-23T06:09:10;32.03;;;15.93;;
52188;SDS011;38162;45.926;13.608;2023-03-23T06:11:36;23.15;;;15.40;;
52188;SDS011;38162;45.926;13.608;2023-03-23T06:14:02;29.85;;;15.93;;
52188;SDS011;38162;45.926;13.608;2023-03-23T06:16:28;19.17;;;14.70;;
52188;SDS011;38162;45.926;13.608;2023-03-23T06:18:54;27.77;;;16.85;;
52188;SDS011;38162;45.926;13.608;2023-03-23T06:21:21;28.17;;;15.45;;
52188;SDS011;38162;45.926;13.608;2023-03-23T06:23:47;29.05;;;15.68;;
52188;SDS011;38162;45.926;13.608;2023-03-23T06:26:13;27.85;;;15.63;;
52188;SDS011;38162;45.926;13.608;2023-03-23T06:28:41;23.63;;;14.95;;
52188;SDS011;38162;45.926;13.608;2023-03-23T06:31:07;24.95;;;14.48;;
52188;SDS011;38162;45.926;13.608;2023-03-23T06:33:36;26.25;;;14.73;;
52188;SDS011;38162;45.926;13.608;2023-03-23T06:36:03;33.97;;;14.93;;
52188;SDS011;38162;45.926;13.608;2023-03-23T06:38:29;36.00;;;15.90;;
52188;SDS011;38162;45.926;13.608;2023-03-23T06:40:56;33.33;;;14.80;;
52188;SDS011;38162;45.926;13.608;2023-03-23T06:43:22;35.40;;;14.88;;
52188;SDS011;38162;45.926;13.608;2023-03-23T06:45:49;33.42;;;15.18;;
52188;SDS011;38162;45.926;13.608;2023-03-23T06:48:16;28.00;;;16.13;;
52188;SDS011;38162;45.926;13.608;2023-03-23T06:50:45;30.40;;;16.02;;
52188;SDS011;38162;45.926;13.608;2023-03-23T06:53:11;29.73;;;14.80;;
52188;SDS011;38162;45.926;13.608;2023-03-23T06:55:37;33.25;;;15.15;;
52188;SDS011;38162;45.926;13.608;2023-03-23T06:58:07;28.80;;;15.05;;
52188;SDS011;38162;45.926;13.608;2023-03-23T07:00:34;26.52;;;14.60;;
52188;SDS011;38162;45.926;13.608;2023-03-23T07:02:59;31.40;;;15.77;;
52188;SDS011;38162;45.926;13.608;2023-03-23T07:05:26;32.95;;;16.23;;
52188;SDS011;38162;45.926;13.608;2023-03-23T07:07:52;28.73;;;16.38;;
52188;SDS011;38162;45.926;13.608;2023-03-23T07:10:17;32.28;;;18.98;;
52188;SDS011;38162;45.926;13.608;2023-03-23T07:12:44;31.27;;;18.95;;
52188;SDS011;38162;45.926;13.608;2023-03-23T07:15:10;37.10;;;18.30;;
52188;SDS011;38162;45.926;13.608;2023-03-23T07:17:37;36.30;;;17.27;;
52188;SDS011;38162;45.926;13.608;2023-03-23T07:20:05;32.08;;;16.85;;
52188;SDS011;38162;45.926;13.608;2023-03-23T07:22:33;31.33;;;16.25;;
52188;SDS011;38162;45.926;13.608;2023-03-23T07:24:59;30.65;;;15.63;;
52188;SDS011;38162;45.926;13.608;2023-03-23T07:27:25;30.73;;;16.33;;
52188;SDS011;38162;45.926;13.608;2023-03-23T07:29:51;36.97;;;15.50;;
52188;SDS011;38162;45.926;13.608;2023-03-23T07:32:17;33.80;;;15.90;;
52188;SDS011;38162;45.926;13.608;2023-03-23T07:34:43;35.60;;;16.73;;
52188;SDS011;38162;45.926;13.608;2023-03-23T07:37:09;34.35;;;16.95;;
52188;SDS011;38162;45.926;13.608;2023-03-23T07:39:35;25.05;;;17.45;;
52188;SDS011;38162;45.926;13.608;2023-03-23T07:42:01;22.45;;;15.93;;
52188;SDS011;38162;45.926;13.608;2023-03-23T07:44:27;21.08;;;15.20;;
52188;SDS011;38162;45.926;13.608;2023-03-23T07:46:53;28.50;;;16.67;;
52188;SDS011;38162;45.926;13.608;2023-03-23T07:49:19;23.63;;;15.02;;
52188;SDS011;38162;45.926;13.608;2023-03-23T07:51:45;23.88;;;15.82;;
52188;SDS011;38162;45.926;13.608;2023-03-23T07:54:11;19.10;;;14.95;;
52188;SDS011;38162;45.926;13.608;2023-03-23T07:56:37;28.88;;;15.52;;
52188;SDS011;38162;45.926;13.608;2023-03-23T07:59:06;30.00;;;16.45;;
52188;SDS011;38162;45.926;13.608;2023-03-23T08:01:33;31.08;;;14.98;;
52188;SDS011;38162;45.926;13.608;2023-03-23T08:03:59;24.75;;;15.40;;
52188;SDS011;38162;45.926;13.608;2023-03-23T08:06:25;34.45;;;16.08;;
52188;SDS011;38162;45.926;13.608;2023-03-23T08:08:51;21.67;;;14.80;;
52188;SDS011;38162;45.926;13.608;2023-03-23T08:11:17;22.63;;;15.30;;
52188;SDS011;38162;45.926;13.608;2023-03-23T08:13:45;20.35;;;13.20;;
52188;SDS011;38162;45.926;13.608;2023-03-23T08:16:11;19.15;;;13.48;;
52188;SDS011;38162;45.926;13.608;2023-03-23T08:18:38;15.98;;;12.88;;
52188;SDS011;38162;45.926;13.608;2023-03-23T08:21:04;18.83;;;13.18;;
52188;SDS011;38162;45.926;13.608;2023-03-23T08:23:33;18.63;;;13.00;;
52188;SDS011;38162;45.926;13.608;2023-03-23T08:26:01;18.15;;;12.02;;
52188;SDS011;38162;45.926;13.608;2023-03-23T08:28:28;17.83;;;12.27;;
52188;SDS011;38162;45.926;13.608;2023-03-23T08:30:54;26.77;;;12.48;;
52188;SDS011;38162;45.926;13.608;2023-03-23T08:33:20;18.75;;;11.68;;
52188;SDS011;38162;45.926;13.608;2023-03-23T08:35:53;20.20;;;12.25;;
52188;SDS011;38162;45.926;13.608;2023-03-23T08:38:20;19.30;;;11.35;;
52188;SDS011;38162;45.926;13.608;2023-03-23T08:40:46;17.90;;;11.43;;
52188;SDS011;38162;45.926;13.608;2023-03-23T08:43:12;25.10;;;12.57;;
52188;SDS011;38162;45.926;13.608;2023-03-23T08:45:38;21.98;;;11.68;;
52188;SDS011;38162;45.926;13.608;2023-03-23T08:48:04;22.27;;;12.07;;
52188;SDS011;38162;45.926;13.608;2023-03-23T08:50:32;18.80;;;11.90;;
52188;SDS011;38162;45.926;13.608;2023-03-23T08:52:58;16.90;;;11.60;;
52188;SDS011;38162;45.926;13.608;2023-03-23T08:55:24;16.83;;;10.63;;
52188;SDS011;38162;45.926;13.608;2023-03-23T08:57:51;19.30;;;10.57;;
52188;SDS011;38162;45.926;13.608;2023-03-23T09:00:18;22.00;;;11.43;;
52188;SDS011;38162;45.926;13.608;2023-03-23T09:02:47;15.65;;;11.50;;
52188;SDS011;38162;45.926;13.608;2023-03-23T09:05:15;21.33;;;10.63;;
52188;SDS011;38162;45.926;13.608;2023-03-23T09:07:42;16.58;;;10.23;;
52188;SDS011;38162;45.926;13.608;2023-03-23T09:10:12;17.05;;;11.32;;
52188;SDS011;38162;45.926;13.608;2023-03-23T09:12:39;23.23;;;11.38;;
52188;SDS011;38162;45.926;13.608;2023-03-23T09:15:07;20.38;;;10.57;;
52188;SDS011;38162;45.926;13.608;2023-03-23T09:17:39;19.70;;;11.07;;
52188;SDS011;38162;45.926;13.608;2023-03-23T09:20:07;15.13;;;10.52;;
52188;SDS011;38162;45.926;13.608;2023-03-23T09:22:37;16.95;;;11.20;;
52188;SDS011;38162;45.926;13.608;2023-03-23T09:25:04;16.88;;;10.57;;
52188;SDS011;38162;45.926;13.608;2023-03-23T09:27:32;17.05;;;10.43;;
52188;SDS011;38162;45.926;13.608;2023-03-23T09:29:58;16.77;;;10.18;;
52188;SDS011;38162;45.926;13.608;2023-03-23T09:32:25;14.23;;;9.25;;
52188;SDS011;38162;45.926;13.608;2023-03-23T09:34:51;15.32;;;9.65;;
52188;SDS011;38162;45.926;13.608;2023-03-23T09:37:20;14.82;;;8.88;;
52188;SDS011;38162;45.926;13.608;2023-03-23T09:39:45;14.30;;;8.68;;
52188;SDS011;38162;45.926;13.608;2023-03-23T09:45:09;13.88;;;7.35;;
52188;SDS011;38162;45.926;13.608;2023-03-23T09:55:17;11.73;;;6.68;;
52188;SDS011;38162;45.926;13.608;2023-03-23T10:00:42;11.43;;;5.57;;
52188;SDS011;38162;45.926;13.608;2023-03-23T10:03:25;9.05;;;5.55;;
52188;SDS011;38162;45.926;13.608;2023-03-23T10:05:55;13.20;;;6.20;;
52188;SDS011;38162;45.926;13.608;2023-03-23T10:08:22;11.05;;;6.72;;
52188;SDS011;38162;45.926;13.608;2023-03-23T10:16:40;13.40;;;6.93;;
52188;SDS011;38162;45.926;13.608;2023-03-23T10:22:11;12.20;;;5.53;;
52188;SDS011;38162;45.926;13.608;2023-03-23T10:30:11;7.72;;;5.05;;
52188;SDS011;38162;45.926;13.608;2023-03-23T10:35:28;8.82;;;4.47;;
52188;SDS011;38162;45.926;13.608;2023-03-23T10:38:41;9.75;;;4.28;;
52188;SDS011;38162;45.926;13.608;2023-03-23T10:41:04;7.00;;;4.25;;
52188;SDS011;38162;45.926;13.608;2023-03-23T10:43:37;8.50;;;3.70;;
52188;SDS011;38162;45.926;13.608;2023-03-23T10:46:40;9.82;;;3.85;;
52188;SDS011;38162;45.926;13.608;2023-03-23T10:52:13;8.70;;;3.35;;
52188;SDS011;38162;45.926;13.608;2023-03-23T10:57:43;6.18;;;2.75;;
52188;SDS011;38162;45.926;13.608;2023-03-23T11:02:42;5.07;;;3.00;;
52188;SDS011;38162;45.926;13.608;2023-03-23T11:05:20;5.05;;;2.95;;
52188;SDS011;38162;45.926;13.608;2023-03-23T11:07:50;6.68;;;3.17;;
52188;SDS011;38162;45.926;13.608;2023-03-23T11:10:35;4.95;;;2.80;;
52188;SDS011;38162;45.926;13.608;2023-03-23T11:13:02;5.95;;;2.67;;
52188;SDS011;38162;45.926;13.608;2023-03-23T11:15:34;7.00;;;3.42;;
52188;SDS011;38162;45.926;13.608;2023-03-23T11:18:06;7.35;;;3.45;;
52188;SDS011;38162;45.926;13.608;2023-03-23T11:20:39;8.60;;;3.67;;
52188;SDS011;38162;45.926;13.608;2023-03-23T11:23:22;8.55;;;3.88;;
52188;SDS011;38162;45.926;13.608;2023-03-23T11:28:51;10.10;;;3.40;;
52188;SDS011;38162;45.926;13.608;2023-03-23T11:31:21;4.47;;;2.83;;
52188;SDS011;38162;45.926;13.608;2023-03-23T11:33:52;7.40;;;3.08;;
52188;SDS011;38162;45.926;13.608;2023-03-23T11:36:28;10.23;;;3.42;;
52188;SDS011;38162;45.926;13.608;2023-03-23T11:39:01;5.78;;;3.20;;
52188;SDS011;38162;45.926;13.608;2023-03-23T11:41:43;7.38;;;3.30;;
52188;SDS011;38162;45.926;13.608;2023-03-23T11:44:09;7.57;;;3.05;;
52188;SDS011;38162;45.926;13.608;2023-03-23T11:51:55;6.25;;;3.03;;
52188;SDS011;38162;45.926;13.608;2023-03-23T11:55:08;5.30;;;2.92;;
52188;SDS011;38162;45.926;13.608;2023-03-23T11:57:38;7.63;;;2.97;;
52188;SDS011;38162;45.926;13.608;2023-03-23T12:00:14;6.82;;;3.05;;
52188;SDS011;38162;45.926;13.608;2023-03-23T12:02:55;5.30;;;2.90;;
52188;SDS011;38162;45.926;13.608;2023-03-23T12:14:11;5.85;;;2.60;;
52188;SDS011;38162;45.926;13.608;2023-03-23T12:19:49;4.38;;;2.70;;
52188;SDS011;38162;45.926;13.608;2023-03-23T12:26:22;4.85;;;2.40;;
52188;SDS011;38162;45.926;13.608;2023-03-23T12:28:41;7.57;;;2.78;;
52188;SDS011;38162;45.926;13.608;2023-03-23T12:31:23;4.25;;;2.47;;
52188;SDS011;38162;45.926;13.608;2023-03-23T12:33:55;5.15;;;2.33;;
52188;SDS011;38162;45.926;13.608;2023-03-23T12:47:40;4.13;;;2.50;;
52188;SDS011;38162;45.926;13.608;2023-03-23T12:55:32;6.35;;;2.70;;
52188;SDS011;38162;45.926;13.608;2023-03-23T12:58:10;6.25;;;3.47;;
52188;SDS011;38162;45.926;13.608;2023-03-23T13:01:02;8.43;;;3.63;;
52188;SDS011;38162;45.926;13.608;2023-03-23T13:06:22;6.47;;;3.50;;
52188;SDS011;38162;45.926;13.608;2023-03-23T13:08:53;5.10;;;2.97;;
52188;SDS011;38162;45.926;13.608;2023-03-23T13:11:36;5.45;;;2.80;;
52188;SDS011;38162;45.926;13.608;2023-03-23T13:23:45;4.78;;;3.13;;
52188;SDS011;38162;45.926;13.608;2023-03-23T13:26:20;8.13;;;3.10;;
52188;SDS011;38162;45.926;13.608;2023-03-23T13:31:30;10.45;;;3.80;;
52188;SDS011;38162;45.926;13.608;2023-03-23T13:34:20;8.98;;;3.40;;
52188;SDS011;38162;45.926;13.608;2023-03-23T13:36:57;11.07;;;5.20;;
52188;SDS011;38162;45.926;13.608;2023-03-23T13:39:24;8.57;;;4.82;;
52188;SDS011;38162;45.926;13.608;2023-03-23T13:42:17;9.20;;;5.68;;
52188;SDS011;38162;45.926;13.608;2023-03-23T13:45:23;11.23;;;4.90;;
52188;SDS011;38162;45.926;13.608;2023-03-23T13:48:39;10.55;;;3.80;;
52188;SDS011;38162;45.926;13.608;2023-03-23T13:51:21;6.35;;;3.47;;
52188;SDS011;38162;45.926;13.608;2023-03-23T13:54:13;7.55;;;3.10;;
52188;SDS011;38162;45.926;13.608;2023-03-23T13:59:15;3.45;;;2.22;;
52188;SDS011;38162;45.926;13.608;2023-03-23T14:01:57;5.05;;;2.72;;
52188;SDS011;38162;45.926;13.608;2023-03-23T14:04:57;5.32;;;2.20;;
52188;SDS011;38162;45.926;13.608;2023-03-23T14:10:19;4.18;;;2.30;;
52188;SDS011;38162;45.926;13.608;2023-03-23T14:12:45;7.07;;;2.10;;
52188;SDS011;38162;45.926;13.608;2023-03-23T14:15:14;5.13;;;2.10;;
52188;SDS011;38162;45.926;13.608;2023-03-23T14:17:41;3.78;;;2.03;;
52188;SDS011;38162;45.926;13.608;2023-03-23T14:20:27;3.88;;;2.00;;
52188;SDS011;38162;45.926;13.608;2023-03-23T14:22:58;2.42;;;2.03;;
52188;SDS011;38162;45.926;13.608;2023-03-23T14:25:29;5.15;;;2.50;;
52188;SDS011;38162;45.926;13.608;2023-03-23T14:27:58;5.70;;;1.92;;
52188;SDS011;38162;45.926;13.608;2023-03-23T14:30:25;2.83;;;1.70;;
52188;SDS011;38162;45.926;13.608;2023-03-23T14:33:03;2.28;;;1.63;;
52188;SDS011;38162;45.926;13.608;2023-03-23T14:37:58;2.75;;;1.67;;
52188;SDS011;38162;45.926;13.608;2023-03-23T14:40:25;4.05;;;2.30;;
52188;SDS011;38162;45.926;13.608;2023-03-23T14:42:52;4.35;;;1.98;;
52188;SDS011;38162;45.926;13.608;2023-03-23T14:45:20;6.03;;;1.88;;
52188;SDS011;38162;45.926;13.608;2023-03-23T14:50:59;4.97;;;2.10;;
52188;SDS011;38162;45.926;13.608;2023-03-23T14:53:11;4.40;;;1.77;;
52188;SDS011;38162;45.926;13.608;2023-03-23T14:55:47;3.13;;;2.10;;
52188;SDS011;38162;45.926;13.608;2023-03-23T14:58:16;3.10;;;1.92;;
52188;SDS011;38162;45.926;13.608;2023-03-23T15:00:54;5.10;;;1.73;;
52188;SDS011;38162;45.926;13.608;2023-03-23T15:03:24;5.38;;;1.92;;
52188;SDS011;38162;45.926;13.608;2023-03-23T15:05:53;5.57;;;2.10;;
52188;SDS011;38162;45.926;13.608;2023-03-23T15:13:52;6.72;;;3.17;;
52188;SDS011;38162;45.926;13.608;2023-03-23T15:16:24;7.13;;;2.33;;
52188;SDS011;38162;45.926;13.608;2023-03-23T15:18:56;5.57;;;2.65;;
52188;SDS011;38162;45.926;13.608;2023-03-23T15:21:33;5.15;;;2.53;;
52188;SDS011;38162;45.926;13.608;2023-03-23T15:24:00;6.32;;;3.15;;
52188;SDS011;38162;45.926;13.608;2023-03-23T15:26:29;6.75;;;2.90;;
52188;SDS011;38162;45.926;13.608;2023-03-23T15:29:03;9.10;;;3.05;;
52188;SDS011;38162;45.926;13.608;2023-03-23T15:31:32;5.97;;;2.72;;
52188;SDS011;38162;45.926;13.608;2023-03-23T15:34:03;3.83;;;2.60;;
52188;SDS011;38162;45.926;13.608;2023-03-23T15:36:33;7.95;;;3.17;;
52188;SDS011;38162;45.926;13.608;2023-03-23T15:39:00;4.97;;;2.80;;
52188;SDS011;38162;45.926;13.608;2023-03-23T15:41:27;3.83;;;2.40;;
52188;SDS011;38162;45.926;13.608;2023-03-23T15:43:56;12.88;;;3.30;;
52188;SDS011;38162;45.926;13.608;2023-03-23T15:46:24;4.25;;;2.38;;
52188;SDS011;38162;45.926;13.608;2023-03-23T15:48:52;4.18;;;2.42;;
52188;SDS011;38162;45.926;13.608;2023-03-23T15:51:21;7.10;;;2.25;;
52188;SDS011;38162;45.926;13.608;2023-03-23T15:53:52;5.95;;;2.38;;
52188;SDS011;38162;45.926;13.608;2023-03-23T15:56:19;7.65;;;2.75;;
52188;SDS011;38162;45.926;13.608;2023-03-23T15:58:46;3.88;;;2.05;;
52188;SDS011;38162;45.926;13.608;2023-03-23T16:01:13;4.93;;;2.25;;
52188;SDS011;38162;45.926;13.608;2023-03-23T16:06:17;3.95;;;2.20;;
52188;SDS011;38162;45.926;13.608;2023-03-23T16:08:44;6.38;;;2.90;;
52188;SDS011;38162;45.926;13.608;2023-03-23T16:11:11;4.35;;;2.47;;
52188;SDS011;38162;45.926;13.608;2023-03-23T16:13:38;7.10;;;2.13;;
52188;SDS011;38162;45.926;13.608;2023-03-23T16:16:04;3.72;;;2.00;;
52188;SDS011;38162;45.926;13.608;2023-03-23T16:18:32;5.88;;;2.42;;
52188;SDS011;38162;45.926;13.608;2023-03-23T16:20:58;3.42;;;2.10;;
52188;SDS011;38162;45.926;13.608;2023-03-23T16:23:25;3.60;;;2.17;;
52188;SDS011;38162;45.926;13.608;2023-03-23T16:25:51;3.05;;;2.25;;
52188;SDS011;38162;45.926;13.608;2023-03-23T16:28:17;3.72;;;2.05;;
52188;SDS011;38162;45.926;13.608;2023-03-23T16:30:44;4.28;;;2.20;;
52188;SDS011;38162;45.926;13.608;2023-03-23T16:33:11;4.80;;;2.25;;
52188;SDS011;38162;45.926;13.608;2023-03-23T16:35:36;4.03;;;2.85;;
52188;SDS011;38162;45.926;13.608;2023-03-23T16:38:03;9.73;;;2.83;;
52188;SDS011;38162;45.926;13.608;2023-03-23T16:40:29;6.50;;;2.60;;
52188;SDS011;38162;45.926;13.608;2023-03-23T16:42:55;3.83;;;2.50;;
52188;SDS011;38162;45.926;13.608;2023-03-23T16:45:20;5.88;;;2.88;;